sensor_id;sensor_type;location;lat;lon;timestamp;P1;durP1;ratioP1;P2;durP2;ratioP2
46489;SDS011;32204;49.160;8.580;2023-02-28T00:00:23;7.25;;;2.90;;
46489;SDS011;32204;49.160;8.580;2023-02-28T00:02:49;4.97;;;3.40;;
46489;SDS011;32204;49.160;8.580;2023-02-28T00:05:16;4.00;;;3.50;;
46489;SDS011;32204;49.160;8.580;2023-02-28T00:07:43;6.60;;;3.70;;
46489;SDS011;32204;49.160;8.580;2023-02-28T00:10:10;5.75;;;3.95;;
46489;SDS011;32204;49.160;8.580;2023-02-28T00:12:37;7.53;;;4.10;;
46489;SDS011;32204;49.160;8.580;2023-02-28T00:15:08;4.38;;;3.10;;
46489;SDS011;32204;49.160;8.580;2023-02-28T00:17:35;4.07;;;3.30;;
46489;SDS011;32204;49.160;8.580;2023-02-28T00:20:01;3.85;;;3.15;;
46489;SDS011;32204;49.160;8.580;2023-02-28T00:22:29;6.70;;;3.40;;
46489;SDS011;32204;49.160;8.580;2023-02-28T00:24:55;4.43;;;3.03;;
46489;SDS011;32204;49.160;8.580;2023-02-28T00:27:21;5.85;;;3.45;;
46489;SDS011;32204;49.160;8.580;2023-02-28T00:29:47;4.97;;;4.03;;
46489;SDS011;32204;49.160;8.580;2023-02-28T00:32:13;7.68;;;3.70;;
46489;SDS011;32204;49.160;8.580;2023-02-28T00:34:38;7.20;;;3.55;;
46489;SDS011;32204;49.160;8.580;2023-02-28T00:37:08;5.85;;;3.67;;
46489;SDS011;32204;49.160;8.580;2023-02-28T00:39:37;5.50;;;3.30;;
46489;SDS011;32204;49.160;8.580;2023-02-28T00:42:03;5.75;;;3.70;;
46489;SDS011;32204;49.160;8.580;2023-02-28T00:44:29;4.63;;;3.58;;
46489;SDS011;32204;49.160;8.580;2023-02-28T00:46:55;4.50;;;3.30;;
46489;SDS011;32204;49.160;8.580;2023-02-28T00:49:21;3.90;;;3.50;;
46489;SDS011;32204;49.160;8.580;2023-02-28T00:51:47;5.03;;;3.60;;
46489;SDS011;32204;49.160;8.580;2023-02-28T00:54:13;5.10;;;4.15;;
46489;SDS011;32204;49.160;8.580;2023-02-28T00:56:39;5.97;;;4.10;;
46489;SDS011;32204;49.160;8.580;2023-02-28T00:59:04;5.63;;;3.45;;
46489;SDS011;32204;49.160;8.580;2023-02-28T01:01:30;5.65;;;3.72;;
46489;SDS011;32204;49.160;8.580;2023-02-28T01:03:56;3.85;;;3.30;;
46489;SDS011;32204;49.160;8.580;2023-02-28T01:06:21;3.80;;;3.35;;
46489;SDS011;32204;49.160;8.580;2023-02-28T01:08:47;4.95;;;3.50;;
46489;SDS011;32204;49.160;8.580;2023-02-28T01:11:14;5.25;;;3.88;;
46489;SDS011;32204;49.160;8.580;2023-02-28T01:13:41;4.45;;;3.80;;
46489;SDS011;32204;49.160;8.580;2023-02-28T01:16:07;5.10;;;3.40;;
46489;SDS011;32204;49.160;8.580;2023-02-28T01:18:33;4.32;;;3.30;;
46489;SDS011;32204;49.160;8.580;2023-02-28T01:21:02;5.20;;;4.30;;
46489;SDS011;32204;49.160;8.580;2023-02-28T01:23:32;6.18;;;3.65;;
46489;SDS011;32204;49.160;8.580;2023-02-28T01:26:08;4.65;;;3.50;;
46489;SDS011;32204;49.160;8.580;2023-02-28T01:28:36;7.57;;;4.05;;
46489;SDS011;32204;49.160;8.580;2023-02-28T01:31:02;4.88;;;3.65;;
46489;SDS011;32204;49.160;8.580;2023-02-28T01:33:28;4.65;;;3.75;;
46489;SDS011;32204;49.160;8.580;2023-02-28T01:35:59;6.68;;;3.92;;
46489;SDS011;32204;49.160;8.580;2023-02-28T01:38:30;5.35;;;4.15;;
46489;SDS011;32204;49.160;8.580;2023-02-28T01:40:56;4.20;;;3.13;;
46489;SDS011;32204;49.160;8.580;2023-02-28T01:43:27;5.93;;;3.78;;
46489;SDS011;32204;49.160;8.580;2023-02-28T01:45:55;5.68;;;4.32;;
46489;SDS011;32204;49.160;8.580;2023-02-28T01:48:32;5.20;;;4.25;;
46489;SDS011;32204;49.160;8.580;2023-02-28T01:51:03;5.57;;;3.75;;
46489;SDS011;32204;49.160;8.580;2023-02-28T01:53:34;4.22;;;3.83;;
46489;SDS011;32204;49.160;8.580;2023-02-28T01:56:04;3.58;;;3.15;;
46489;SDS011;32204;49.160;8.580;2023-02-28T01:58:32;4.50;;;3.83;;
46489;SDS011;32204;49.160;8.580;2023-02-28T02:00:58;4.68;;;4.07;;
46489;SDS011;32204;49.160;8.580;2023-02-28T02:03:23;5.90;;;4.47;;
46489;SDS011;32204;49.160;8.580;2023-02-28T02:05:49;4.78;;;3.60;;
46489;SDS011;32204;49.160;8.580;2023-02-28T02:08:22;5.82;;;4.10;;
46489;SDS011;32204;49.160;8.580;2023-02-28T02:10:56;5.15;;;4.13;;
46489;SDS011;32204;49.160;8.580;2023-02-28T02:13:28;4.78;;;3.92;;
46489;SDS011;32204;49.160;8.580;2023-02-28T02:19:14;5.38;;;3.92;;
46489;SDS011;32204;49.160;8.580;2023-02-28T02:35:56;5.53;;;4.38;;
46489;SDS011;32204;49.160;8.580;2023-02-28T02:38:35;6.03;;;4.25;;
46489;SDS011;32204;49.160;8.580;2023-02-28T02:41:33;5.35;;;3.70;;
46489;SDS011;32204;49.160;8.580;2023-02-28T02:44:05;5.95;;;4.65;;
46489;SDS011;32204;49.160;8.580;2023-02-28T02:46:47;5.20;;;4.18;;
46489;SDS011;32204;49.160;8.580;2023-02-28T02:49:25;5.45;;;4.10;;
46489;SDS011;32204;49.160;8.580;2023-02-28T02:51:54;6.63;;;4.55;;
46489;SDS011;32204;49.160;8.580;2023-02-28T02:54:24;5.38;;;3.83;;
46489;SDS011;32204;49.160;8.580;2023-02-28T02:56:58;4.15;;;3.78;;
46489;SDS011;32204;49.160;8.580;2023-02-28T02:59:28;6.35;;;4.50;;
46489;SDS011;32204;49.160;8.580;2023-02-28T03:01:56;8.27;;;5.07;;
46489;SDS011;32204;49.160;8.580;2023-02-28T03:04:28;5.20;;;4.13;;
46489;SDS011;32204;49.160;8.580;2023-02-28T03:06:58;7.47;;;4.60;;
46489;SDS011;32204;49.160;8.580;2023-02-28T03:09:24;6.35;;;4.80;;
46489;SDS011;32204;49.160;8.580;2023-02-28T03:11:52;7.57;;;4.53;;
46489;SDS011;32204;49.160;8.580;2023-02-28T03:14:24;7.43;;;5.85;;
46489;SDS011;32204;49.160;8.580;2023-02-28T03:19:29;6.13;;;4.32;;
46489;SDS011;32204;49.160;8.580;2023-02-28T03:24:32;5.68;;;4.28;;
46489;SDS011;32204;49.160;8.580;2023-02-28T03:27:09;6.88;;;5.30;;
46489;SDS011;32204;49.160;8.580;2023-02-28T03:29:50;4.78;;;4.07;;
46489;SDS011;32204;49.160;8.580;2023-02-28T03:32:51;6.38;;;4.55;;
46489;SDS011;32204;49.160;8.580;2023-02-28T03:35:29;10.73;;;4.75;;
46489;SDS011;32204;49.160;8.580;2023-02-28T03:38:06;6.97;;;4.57;;
46489;SDS011;32204;49.160;8.580;2023-02-28T03:40:41;7.07;;;4.75;;
46489;SDS011;32204;49.160;8.580;2023-02-28T03:43:13;7.20;;;5.82;;
46489;SDS011;32204;49.160;8.580;2023-02-28T03:45:43;7.85;;;4.60;;
46489;SDS011;32204;49.160;8.580;2023-02-28T03:50:47;7.57;;;4.82;;
46489;SDS011;32204;49.160;8.580;2023-02-28T03:53:31;4.60;;;3.55;;
46489;SDS011;32204;49.160;8.580;2023-02-28T03:56:02;7.35;;;5.90;;
46489;SDS011;32204;49.160;8.580;2023-02-28T03:58:40;5.93;;;4.72;;
46489;SDS011;32204;49.160;8.580;2023-02-28T04:01:36;6.45;;;5.00;;
46489;SDS011;32204;49.160;8.580;2023-02-28T04:04:03;7.68;;;5.30;;
46489;SDS011;32204;49.160;8.580;2023-02-28T04:06:30;7.95;;;5.68;;
46489;SDS011;32204;49.160;8.580;2023-02-28T04:08:57;8.45;;;5.75;;
46489;SDS011;32204;49.160;8.580;2023-02-28T04:11:25;6.63;;;4.85;;
46489;SDS011;32204;49.160;8.580;2023-02-28T04:13:53;10.48;;;6.35;;
46489;SDS011;32204;49.160;8.580;2023-02-28T04:16:18;6.85;;;5.47;;
46489;SDS011;32204;49.160;8.580;2023-02-28T04:18:44;9.25;;;5.88;;
46489;SDS011;32204;49.160;8.580;2023-02-28T04:21:10;8.25;;;4.93;;
46489;SDS011;32204;49.160;8.580;2023-02-28T04:23:36;7.40;;;5.45;;
46489;SDS011;32204;49.160;8.580;2023-02-28T04:26:01;7.13;;;4.90;;
46489;SDS011;32204;49.160;8.580;2023-02-28T04:28:28;9.15;;;6.07;;
46489;SDS011;32204;49.160;8.580;2023-02-28T04:30:55;7.57;;;5.68;;
46489;SDS011;32204;49.160;8.580;2023-02-28T04:33:26;7.32;;;5.53;;
46489;SDS011;32204;49.160;8.580;2023-02-28T04:36:05;7.85;;;5.00;;
46489;SDS011;32204;49.160;8.580;2023-02-28T04:38:33;7.40;;;5.50;;
46489;SDS011;32204;49.160;8.580;2023-02-28T04:41:01;8.80;;;5.75;;
46489;SDS011;32204;49.160;8.580;2023-02-28T04:43:27;7.05;;;5.70;;
46489;SDS011;32204;49.160;8.580;2023-02-28T04:45:53;7.07;;;5.72;;
46489;SDS011;32204;49.160;8.580;2023-02-28T04:48:21;8.00;;;5.80;;
46489;SDS011;32204;49.160;8.580;2023-02-28T04:50:52;7.32;;;5.60;;
46489;SDS011;32204;49.160;8.580;2023-02-28T04:53:17;7.95;;;6.68;;
46489;SDS011;32204;49.160;8.580;2023-02-28T04:55:43;8.50;;;5.90;;
46489;SDS011;32204;49.160;8.580;2023-02-28T04:58:10;8.70;;;6.00;;
46489;SDS011;32204;49.160;8.580;2023-02-28T05:00:35;7.38;;;5.82;;
46489;SDS011;32204;49.160;8.580;2023-02-28T05:03:01;8.25;;;6.55;;
46489;SDS011;32204;49.160;8.580;2023-02-28T05:05:26;9.48;;;6.20;;
46489;SDS011;32204;49.160;8.580;2023-02-28T05:07:52;6.82;;;5.80;;
46489;SDS011;32204;49.160;8.580;2023-02-28T05:10:18;9.00;;;6.40;;
46489;SDS011;32204;49.160;8.580;2023-02-28T05:12:44;8.15;;;6.00;;
46489;SDS011;32204;49.160;8.580;2023-02-28T05:15:12;10.15;;;7.35;;
46489;SDS011;32204;49.160;8.580;2023-02-28T05:17:39;9.48;;;6.32;;
46489;SDS011;32204;49.160;8.580;2023-02-28T05:20:05;9.00;;;6.70;;
46489;SDS011;32204;49.160;8.580;2023-02-28T05:22:32;7.45;;;6.03;;
46489;SDS011;32204;49.160;8.580;2023-02-28T05:24:57;6.50;;;5.40;;
46489;SDS011;32204;49.160;8.580;2023-02-28T05:27:23;8.85;;;6.00;;
46489;SDS011;32204;49.160;8.580;2023-02-28T05:29:49;9.32;;;6.82;;
46489;SDS011;32204;49.160;8.580;2023-02-28T05:32:14;8.23;;;6.25;;
46489;SDS011;32204;49.160;8.580;2023-02-28T05:34:40;7.28;;;5.25;;
46489;SDS011;32204;49.160;8.580;2023-02-28T05:37:11;8.93;;;6.07;;
46489;SDS011;32204;49.160;8.580;2023-02-28T05:39:41;8.63;;;6.18;;
46489;SDS011;32204;49.160;8.580;2023-02-28T05:42:07;8.57;;;6.00;;
46489;SDS011;32204;49.160;8.580;2023-02-28T05:44:34;8.77;;;6.40;;
46489;SDS011;32204;49.160;8.580;2023-02-28T05:47:00;8.00;;;6.45;;
46489;SDS011;32204;49.160;8.580;2023-02-28T05:49:26;8.45;;;6.18;;
46489;SDS011;32204;49.160;8.580;2023-02-28T05:51:51;7.10;;;5.97;;
46489;SDS011;32204;49.160;8.580;2023-02-28T05:54:17;10.05;;;6.43;;
46489;SDS011;32204;49.160;8.580;2023-02-28T05:56:43;8.20;;;6.28;;
46489;SDS011;32204;49.160;8.580;2023-02-28T05:59:12;9.73;;;6.57;;
46489;SDS011;32204;49.160;8.580;2023-02-28T06:01:41;8.38;;;6.30;;
46489;SDS011;32204;49.160;8.580;2023-02-28T06:04:15;8.80;;;6.32;;
46489;SDS011;32204;49.160;8.580;2023-02-28T06:06:44;8.73;;;6.55;;
46489;SDS011;32204;49.160;8.580;2023-02-28T06:09:10;12.20;;;9.00;;
46489;SDS011;32204;49.160;8.580;2023-02-28T06:11:36;7.22;;;5.32;;
46489;SDS011;32204;49.160;8.580;2023-02-28T06:14:03;9.13;;;6.15;;
46489;SDS011;32204;49.160;8.580;2023-02-28T06:16:29;8.40;;;6.32;;
46489;SDS011;32204;49.160;8.580;2023-02-28T06:18:57;9.00;;;6.57;;
46489;SDS011;32204;49.160;8.580;2023-02-28T06:21:24;8.93;;;6.35;;
46489;SDS011;32204;49.160;8.580;2023-02-28T06:23:50;8.60;;;6.60;;
46489;SDS011;32204;49.160;8.580;2023-02-28T06:26:15;11.93;;;7.40;;
46489;SDS011;32204;49.160;8.580;2023-02-28T06:28:41;9.35;;;6.18;;
46489;SDS011;32204;49.160;8.580;2023-02-28T06:31:07;9.63;;;6.95;;
46489;SDS011;32204;49.160;8.580;2023-02-28T06:33:35;8.80;;;6.78;;
46489;SDS011;32204;49.160;8.580;2023-02-28T06:36:02;9.55;;;6.85;;
46489;SDS011;32204;49.160;8.580;2023-02-28T06:38:28;11.20;;;6.78;;
46489;SDS011;32204;49.160;8.580;2023-02-28T06:40:54;10.13;;;6.38;;
46489;SDS011;32204;49.160;8.580;2023-02-28T06:43:21;14.75;;;10.35;;
46489;SDS011;32204;49.160;8.580;2023-02-28T06:45:48;12.93;;;8.32;;
46489;SDS011;32204;49.160;8.580;2023-02-28T06:48:13;8.40;;;6.80;;
46489;SDS011;32204;49.160;8.580;2023-02-28T06:50:39;9.43;;;7.40;;
46489;SDS011;32204;49.160;8.580;2023-02-28T06:53:05;9.10;;;7.72;;
46489;SDS011;32204;49.160;8.580;2023-02-28T06:55:30;8.95;;;7.35;;
46489;SDS011;32204;49.160;8.580;2023-02-28T06:57:56;9.43;;;6.75;;
46489;SDS011;32204;49.160;8.580;2023-02-28T07:00:22;10.77;;;7.53;;
46489;SDS011;32204;49.160;8.580;2023-02-28T07:02:49;9.45;;;6.85;;
46489;SDS011;32204;49.160;8.580;2023-02-28T07:05:15;11.85;;;7.13;;
46489;SDS011;32204;49.160;8.580;2023-02-28T07:07:41;11.07;;;7.32;;
46489;SDS011;32204;49.160;8.580;2023-02-28T07:10:12;9.30;;;6.90;;
46489;SDS011;32204;49.160;8.580;2023-02-28T07:12:39;9.63;;;7.00;;
46489;SDS011;32204;49.160;8.580;2023-02-28T07:15:05;9.98;;;7.03;;
46489;SDS011;32204;49.160;8.580;2023-02-28T07:17:31;9.48;;;6.72;;
46489;SDS011;32204;49.160;8.580;2023-02-28T07:19:57;9.38;;;7.25;;
46489;SDS011;32204;49.160;8.580;2023-02-28T07:22:22;9.73;;;7.13;;
46489;SDS011;32204;49.160;8.580;2023-02-28T07:24:49;11.48;;;8.93;;
46489;SDS011;32204;49.160;8.580;2023-02-28T07:27:15;11.93;;;7.28;;
46489;SDS011;32204;49.160;8.580;2023-02-28T07:29:49;8.23;;;7.00;;
46489;SDS011;32204;49.160;8.580;2023-02-28T07:32:15;13.45;;;9.25;;
46489;SDS011;32204;49.160;8.580;2023-02-28T07:34:41;10.57;;;7.32;;
46489;SDS011;32204;49.160;8.580;2023-02-28T07:37:06;10.15;;;6.72;;
46489;SDS011;32204;49.160;8.580;2023-02-28T07:39:32;8.15;;;6.50;;
46489;SDS011;32204;49.160;8.580;2023-02-28T07:41:57;8.23;;;7.07;;
46489;SDS011;32204;49.160;8.580;2023-02-28T07:44:24;11.18;;;7.95;;
46489;SDS011;32204;49.160;8.580;2023-02-28T07:46:50;9.02;;;7.13;;
46489;SDS011;32204;49.160;8.580;2023-02-28T07:49:17;10.98;;;8.27;;
46489;SDS011;32204;49.160;8.580;2023-02-28T07:51:43;8.50;;;7.10;;
46489;SDS011;32204;49.160;8.580;2023-02-28T07:54:09;12.02;;;7.72;;
46489;SDS011;32204;49.160;8.580;2023-02-28T07:56:35;11.15;;;8.00;;
46489;SDS011;32204;49.160;8.580;2023-02-28T07:59:01;13.18;;;6.82;;
46489;SDS011;32204;49.160;8.580;2023-02-28T08:01:27;8.68;;;6.95;;
46489;SDS011;32204;49.160;8.580;2023-02-28T08:03:52;11.95;;;8.18;;
46489;SDS011;32204;49.160;8.580;2023-02-28T08:06:20;9.77;;;7.35;;
46489;SDS011;32204;49.160;8.580;2023-02-28T08:08:47;8.73;;;7.68;;
46489;SDS011;32204;49.160;8.580;2023-02-28T08:11:14;13.55;;;7.68;;
46489;SDS011;32204;49.160;8.580;2023-02-28T08:13:40;9.48;;;8.05;;
46489;SDS011;32204;49.160;8.580;2023-02-28T08:16:07;13.10;;;7.88;;
46489;SDS011;32204;49.160;8.580;2023-02-28T08:18:33;10.85;;;7.38;;
46489;SDS011;32204;49.160;8.580;2023-02-28T08:20:58;10.57;;;8.35;;
46489;SDS011;32204;49.160;8.580;2023-02-28T08:23:24;12.20;;;8.95;;
46489;SDS011;32204;49.160;8.580;2023-02-28T08:25:56;11.32;;;8.52;;
46489;SDS011;32204;49.160;8.580;2023-02-28T08:28:22;9.80;;;7.80;;
46489;SDS011;32204;49.160;8.580;2023-02-28T08:30:47;11.48;;;8.45;;
46489;SDS011;32204;49.160;8.580;2023-02-28T08:33:14;10.85;;;7.65;;
46489;SDS011;32204;49.160;8.580;2023-02-28T08:35:39;10.32;;;8.38;;
46489;SDS011;32204;49.160;8.580;2023-02-28T08:38:05;13.73;;;8.27;;
46489;SDS011;32204;49.160;8.580;2023-02-28T08:40:30;10.40;;;8.77;;
46489;SDS011;32204;49.160;8.580;2023-02-28T08:42:56;12.43;;;8.85;;
46489;SDS011;32204;49.160;8.580;2023-02-28T08:45:22;14.27;;;8.38;;
46489;SDS011;32204;49.160;8.580;2023-02-28T08:47:47;8.82;;;7.68;;
46489;SDS011;32204;49.160;8.580;2023-02-28T08:50:13;11.63;;;8.52;;
46489;SDS011;32204;49.160;8.580;2023-02-28T08:52:41;9.10;;;7.93;;
46489;SDS011;32204;49.160;8.580;2023-02-28T08:57:34;10.05;;;8.35;;
46489;SDS011;32204;49.160;8.580;2023-02-28T09:00:00;11.40;;;8.25;;
46489;SDS011;32204;49.160;8.580;2023-02-28T09:02:29;12.80;;;8.38;;
46489;SDS011;32204;49.160;8.580;2023-02-28T09:04:57;10.85;;;8.30;;
46489;SDS011;32204;49.160;8.580;2023-02-28T09:07:23;9.15;;;7.63;;
46489;SDS011;32204;49.160;8.580;2023-02-28T09:09:49;8.75;;;7.53;;
46489;SDS011;32204;49.160;8.580;2023-02-28T09:12:23;9.98;;;8.95;;
46489;SDS011;32204;49.160;8.580;2023-02-28T09:14:51;11.10;;;9.10;;
46489;SDS011;32204;49.160;8.580;2023-02-28T09:17:17;13.95;;;10.40;;
46489;SDS011;32204;49.160;8.580;2023-02-28T09:19:43;10.45;;;8.02;;
46489;SDS011;32204;49.160;8.580;2023-02-28T09:22:10;9.73;;;8.13;;
46489;SDS011;32204;49.160;8.580;2023-02-28T09:24:36;11.63;;;8.57;;
46489;SDS011;32204;49.160;8.580;2023-02-28T09:27:03;9.63;;;7.97;;
46489;SDS011;32204;49.160;8.580;2023-02-28T09:29:30;11.88;;;8.05;;
46489;SDS011;32204;49.160;8.580;2023-02-28T09:31:56;12.50;;;8.50;;
46489;SDS011;32204;49.160;8.580;2023-02-28T09:34:23;13.82;;;8.13;;
46489;SDS011;32204;49.160;8.580;2023-02-28T09:39:19;9.27;;;7.65;;
46489;SDS011;32204;49.160;8.580;2023-02-28T09:41:47;12.23;;;9.43;;
46489;SDS011;32204;49.160;8.580;2023-02-28T09:44:26;9.98;;;8.25;;
46489;SDS011;32204;49.160;8.580;2023-02-28T09:47:13;11.07;;;8.50;;
46489;SDS011;32204;49.160;8.580;2023-02-28T09:49:51;11.82;;;8.75;;
46489;SDS011;32204;49.160;8.580;2023-02-28T09:52:21;12.27;;;9.75;;
46489;SDS011;32204;49.160;8.580;2023-02-28T09:54:55;13.32;;;9.85;;
46489;SDS011;32204;49.160;8.580;2023-02-28T09:57:39;10.38;;;8.23;;
46489;SDS011;32204;49.160;8.580;2023-02-28T10:05:13;11.80;;;8.23;;
46489;SDS011;32204;49.160;8.580;2023-02-28T10:13:20;11.17;;;8.40;;
46489;SDS011;32204;49.160;8.580;2023-02-28T10:15:58;12.85;;;9.23;;
46489;SDS011;32204;49.160;8.580;2023-02-28T10:18:31;11.73;;;8.63;;
46489;SDS011;32204;49.160;8.580;2023-02-28T10:21:28;10.65;;;8.70;;
46489;SDS011;32204;49.160;8.580;2023-02-28T10:24:13;10.60;;;8.00;;
46489;SDS011;32204;49.160;8.580;2023-02-28T10:26:41;9.95;;;8.57;;
46489;SDS011;32204;49.160;8.580;2023-02-28T10:29:10;11.35;;;9.32;;
46489;SDS011;32204;49.160;8.580;2023-02-28T10:31:36;11.23;;;9.20;;
46489;SDS011;32204;49.160;8.580;2023-02-28T10:34:03;13.70;;;9.68;;
46489;SDS011;32204;49.160;8.580;2023-02-28T10:36:31;12.73;;;10.35;;
46489;SDS011;32204;49.160;8.580;2023-02-28T10:38:56;10.63;;;8.35;;
46489;SDS011;32204;49.160;8.580;2023-02-28T10:41:29;13.88;;;9.60;;
46489;SDS011;32204;49.160;8.580;2023-02-28T10:46:39;10.88;;;9.32;;
46489;SDS011;32204;49.160;8.580;2023-02-28T10:49:07;10.00;;;8.20;;
46489;SDS011;32204;49.160;8.580;2023-02-28T10:51:39;16.25;;;8.13;;
46489;SDS011;32204;49.160;8.580;2023-02-28T10:54:14;12.75;;;9.25;;
46489;SDS011;32204;49.160;8.580;2023-02-28T10:56:44;11.82;;;9.38;;
46489;SDS011;32204;49.160;8.580;2023-02-28T10:59:29;9.43;;;7.30;;
46489;SDS011;32204;49.160;8.580;2023-02-28T11:01:55;10.57;;;9.48;;
46489;SDS011;32204;49.160;8.580;2023-02-28T11:07:01;12.35;;;9.98;;
46489;SDS011;32204;49.160;8.580;2023-02-28T11:12:00;12.05;;;9.77;;
46489;SDS011;32204;49.160;8.580;2023-02-28T11:14:28;11.43;;;9.45;;
46489;SDS011;32204;49.160;8.580;2023-02-28T11:16:59;15.32;;;9.70;;
46489;SDS011;32204;49.160;8.580;2023-02-28T11:19:39;13.05;;;10.73;;
46489;SDS011;32204;49.160;8.580;2023-02-28T11:22:10;10.55;;;9.45;;
46489;SDS011;32204;49.160;8.580;2023-02-28T11:24:43;11.27;;;9.60;;
46489;SDS011;32204;49.160;8.580;2023-02-28T11:27:25;10.73;;;8.52;;
46489;SDS011;32204;49.160;8.580;2023-02-28T11:29:54;11.80;;;9.45;;
46489;SDS011;32204;49.160;8.580;2023-02-28T11:32:23;9.88;;;8.85;;
46489;SDS011;32204;49.160;8.580;2023-02-28T11:35:14;12.10;;;9.35;;
46489;SDS011;32204;49.160;8.580;2023-02-28T11:37:47;10.45;;;8.90;;
46489;SDS011;32204;49.160;8.580;2023-02-28T11:40:16;12.68;;;10.00;;
46489;SDS011;32204;49.160;8.580;2023-02-28T11:42:53;10.50;;;8.85;;
46489;SDS011;32204;49.160;8.580;2023-02-28T11:45:29;11.98;;;8.82;;
46489;SDS011;32204;49.160;8.580;2023-02-28T11:48:18;11.32;;;9.73;;
46489;SDS011;32204;49.160;8.580;2023-02-28T11:51:03;12.02;;;9.13;;
46489;SDS011;32204;49.160;8.580;2023-02-28T11:56:55;11.13;;;9.02;;
46489;SDS011;32204;49.160;8.580;2023-02-28T12:02:28;13.43;;;9.60;;
46489;SDS011;32204;49.160;8.580;2023-02-28T12:07:49;14.02;;;10.20;;
46489;SDS011;32204;49.160;8.580;2023-02-28T12:10:23;12.38;;;9.35;;
46489;SDS011;32204;49.160;8.580;2023-02-28T12:21:01;13.85;;;10.05;;
46489;SDS011;32204;49.160;8.580;2023-02-28T12:23:44;14.43;;;9.43;;
46489;SDS011;32204;49.160;8.580;2023-02-28T12:28:49;13.10;;;9.90;;
46489;SDS011;32204;49.160;8.580;2023-02-28T12:31:26;10.68;;;8.65;;
46489;SDS011;32204;49.160;8.580;2023-02-28T12:33:58;12.52;;;9.93;;
46489;SDS011;32204;49.160;8.580;2023-02-28T12:36:26;11.23;;;10.00;;
46489;SDS011;32204;49.160;8.580;2023-02-28T12:38:58;12.93;;;9.52;;
46489;SDS011;32204;49.160;8.580;2023-02-28T12:41:51;13.60;;;9.65;;
46489;SDS011;32204;49.160;8.580;2023-02-28T12:47:09;11.70;;;9.27;;
46489;SDS011;32204;49.160;8.580;2023-02-28T12:49:42;10.80;;;9.73;;
46489;SDS011;32204;49.160;8.580;2023-02-28T12:52:15;11.07;;;9.95;;
46489;SDS011;32204;49.160;8.580;2023-02-28T12:54:48;11.05;;;9.48;;
46489;SDS011;32204;49.160;8.580;2023-02-28T13:00:11;11.05;;;9.82;;
46489;SDS011;32204;49.160;8.580;2023-02-28T13:13:58;11.52;;;10.27;;
46489;SDS011;32204;49.160;8.580;2023-02-28T13:16:26;11.45;;;9.70;;
46489;SDS011;32204;49.160;8.580;2023-02-28T13:18:53;13.13;;;10.57;;
46489;SDS011;32204;49.160;8.580;2023-02-28T13:21:41;11.60;;;10.20;;
46489;SDS011;32204;49.160;8.580;2023-02-28T13:24:09;12.90;;;9.80;;
46489;SDS011;32204;49.160;8.580;2023-02-28T13:34:33;12.68;;;11.38;;
46489;SDS011;32204;49.160;8.580;2023-02-28T13:47:38;17.13;;;11.82;;
46489;SDS011;32204;49.160;8.580;2023-02-28T13:53:00;14.93;;;11.98;;
46489;SDS011;32204;49.160;8.580;2023-02-28T14:07:03;13.85;;;11.93;;
46489;SDS011;32204;49.160;8.580;2023-02-28T14:18:05;12.73;;;11.02;;
46489;SDS011;32204;49.160;8.580;2023-02-28T14:20:39;14.80;;;11.35;;
46489;SDS011;32204;49.160;8.580;2023-02-28T14:37:50;11.45;;;10.25;;
46489;SDS011;32204;49.160;8.580;2023-02-28T14:43:04;16.08;;;11.68;;
46489;SDS011;32204;49.160;8.580;2023-02-28T14:45:42;14.27;;;10.82;;
46489;SDS011;32204;49.160;8.580;2023-02-28T14:48:09;17.25;;;12.23;;
46489;SDS011;32204;49.160;8.580;2023-02-28T14:50:35;13.15;;;11.38;;
46489;SDS011;32204;49.160;8.580;2023-02-28T14:53:02;15.65;;;12.25;;
46489;SDS011;32204;49.160;8.580;2023-02-28T14:55:34;14.20;;;10.75;;
46489;SDS011;32204;49.160;8.580;2023-02-28T14:58:05;11.73;;;10.38;;
46489;SDS011;32204;49.160;8.580;2023-02-28T15:00:35;15.32;;;10.90;;
46489;SDS011;32204;49.160;8.580;2023-02-28T15:03:22;14.23;;;11.15;;
46489;SDS011;32204;49.160;8.580;2023-02-28T15:05:54;14.18;;;11.00;;
46489;SDS011;32204;49.160;8.580;2023-02-28T15:08:22;13.70;;;11.63;;
46489;SDS011;32204;49.160;8.580;2023-02-28T15:10:53;13.07;;;10.52;;
46489;SDS011;32204;49.160;8.580;2023-02-28T15:13:22;13.20;;;11.52;;
46489;SDS011;32204;49.160;8.580;2023-02-28T15:15:52;14.60;;;12.48;;
46489;SDS011;32204;49.160;8.580;2023-02-28T15:18:32;13.05;;;10.70;;
46489;SDS011;32204;49.160;8.580;2023-02-28T15:21:20;12.05;;;10.82;;
46489;SDS011;32204;49.160;8.580;2023-02-28T15:23:55;14.85;;;10.95;;
46489;SDS011;32204;49.160;8.580;2023-02-28T15:26:29;13.82;;;12.00;;
46489;SDS011;32204;49.160;8.580;2023-02-28T15:29:05;15.57;;;12.40;;
46489;SDS011;32204;49.160;8.580;2023-02-28T15:31:40;14.65;;;12.00;;
46489;SDS011;32204;49.160;8.580;2023-02-28T15:34:34;14.98;;;11.23;;
46489;SDS011;32204;49.160;8.580;2023-02-28T15:37:06;16.80;;;13.05;;
46489;SDS011;32204;49.160;8.580;2023-02-28T15:39:53;13.07;;;11.23;;
46489;SDS011;32204;49.160;8.580;2023-02-28T15:42:21;15.30;;;12.25;;
46489;SDS011;32204;49.160;8.580;2023-02-28T15:44:52;14.80;;;11.63;;
46489;SDS011;32204;49.160;8.580;2023-02-28T15:47:18;13.18;;;11.75;;
46489;SDS011;32204;49.160;8.580;2023-02-28T15:49:57;14.27;;;11.77;;
46489;SDS011;32204;49.160;8.580;2023-02-28T15:55:19;17.40;;;13.13;;
46489;SDS011;32204;49.160;8.580;2023-02-28T15:57:52;18.80;;;14.10;;
46489;SDS011;32204;49.160;8.580;2023-02-28T16:02:50;17.55;;;12.77;;
46489;SDS011;32204;49.160;8.580;2023-02-28T16:05:23;16.20;;;11.95;;
46489;SDS011;32204;49.160;8.580;2023-02-28T16:07:57;22.83;;;15.77;;
46489;SDS011;32204;49.160;8.580;2023-02-28T16:10:25;23.13;;;15.18;;
46489;SDS011;32204;49.160;8.580;2023-02-28T16:12:53;18.35;;;13.98;;
46489;SDS011;32204;49.160;8.580;2023-02-28T16:15:21;14.70;;;11.70;;
46489;SDS011;32204;49.160;8.580;2023-02-28T16:17:54;15.98;;;10.82;;
46489;SDS011;32204;49.160;8.580;2023-02-28T16:20:22;16.83;;;11.77;;
46489;SDS011;32204;49.160;8.580;2023-02-28T16:22:55;15.32;;;10.77;;
46489;SDS011;32204;49.160;8.580;2023-02-28T16:25:26;14.60;;;12.02;;
46489;SDS011;32204;49.160;8.580;2023-02-28T16:27:58;13.65;;;10.75;;
46489;SDS011;32204;49.160;8.580;2023-02-28T16:30:26;13.82;;;11.13;;
46489;SDS011;32204;49.160;8.580;2023-02-28T16:32:56;14.65;;;11.32;;
46489;SDS011;32204;49.160;8.580;2023-02-28T16:35:22;12.45;;;8.98;;
46489;SDS011;32204;49.160;8.580;2023-02-28T16:37:50;17.02;;;12.55;;
46489;SDS011;32204;49.160;8.580;2023-02-28T16:40:19;17.88;;;12.18;;
46489;SDS011;32204;49.160;8.580;2023-02-28T16:42:48;15.82;;;13.07;;
46489;SDS011;32204;49.160;8.580;2023-02-28T16:45:21;16.73;;;12.07;;
46489;SDS011;32204;49.160;8.580;2023-02-28T16:47:49;19.90;;;12.70;;
46489;SDS011;32204;49.160;8.580;2023-02-28T16:50:17;16.48;;;10.75;;
46489;SDS011;32204;49.160;8.580;2023-02-28T16:52:44;13.13;;;10.98;;
46489;SDS011;32204;49.160;8.580;2023-02-28T16:55:11;17.10;;;11.77;;
46489;SDS011;32204;49.160;8.580;2023-02-28T16:57:37;15.02;;;11.60;;
46489;SDS011;32204;49.160;8.580;2023-02-28T17:00:03;17.23;;;12.77;;
46489;SDS011;32204;49.160;8.580;2023-02-28T17:02:33;17.10;;;11.77;;
46489;SDS011;32204;49.160;8.580;2023-02-28T17:04:59;17.35;;;12.45;;
46489;SDS011;32204;49.160;8.580;2023-02-28T17:07:24;22.60;;;15.38;;
46489;SDS011;32204;49.160;8.580;2023-02-28T17:09:50;23.83;;;15.60;;
46489;SDS011;32204;49.160;8.580;2023-02-28T17:12:16;18.48;;;12.45;;
46489;SDS011;32204;49.160;8.580;2023-02-28T17:14:42;19.63;;;12.63;;
46489;SDS011;32204;49.160;8.580;2023-02-28T17:17:09;21.25;;;13.18;;
46489;SDS011;32204;49.160;8.580;2023-02-28T17:19:40;20.42;;;13.32;;
46489;SDS011;32204;49.160;8.580;2023-02-28T17:22:08;21.57;;;14.50;;